Time;durP1;ratioP1;P1;durP2;ratioP2;P2;SDS_P1;SDS_P2;PMS_P1;PMS_P2;Temp;Humidity;BMP_temperature;BMP_pressure;BME280_temperature;BME280_humidity;BME280_pressure;Samples;Min_cycle;Max_cycle;Signal;HPM_P1;HPM_P2
2023/09/11 00:00:14;;;;;;;7.75;6.60;;;;;;;18.38;85.89;100868.47;7388235;19;20367;-76
2023/09/11 00:02:41;;;;;;;7.47;6.57;;;;;;;18.32;85.52;100867.50;7384351;19;20760;-76
2023/09/11 00:05:08;;;;;;;7.90;6.73;;;;;;;18.29;85.99;100859.88;7386507;19;20994;-76
2023/09/11 00:07:35;;;;;;;8.93;7.15;;;;;;;18.26;85.98;100854.97;7383115;19;20448;-76
2023/09/11 00:10:03;;;;;;;8.70;6.93;;;;;;;18.22;86.07;100855.66;7383873;19;20417;-75
2023/09/11 00:12:30;;;;;;;7.90;7.10;;;;;;;18.20;86.10;100855.84;7386927;19;20336;-75
2023/09/11 00:14:57;;;;;;;7.90;7.10;;;;;;;18.17;86.15;100852.78;7385548;19;20432;-76
2023/09/11 00:17:23;;;;;;;7.57;6.80;;;;;;;18.14;86.22;100843.31;7388421;19;20455;-76
2023/09/11 00:19:50;;;;;;;8.95;6.40;;;;;;;18.13;86.60;100833.63;7384323;19;20657;-76
2023/09/11 00:22:17;;;;;;;9.38;8.38;;;;;;;18.11;86.62;100835.72;7382842;19;20377;-76
2023/09/11 00:24:44;;;;;;;9.40;8.50;;;;;;;18.12;87.25;100840.03;7385867;19;20356;-76
2023/09/11 00:27:11;;;;;;;10.45;8.65;;;;;;;18.10;87.52;100832.19;7388360;19;20894;-76
2023/09/11 00:29:38;;;;;;;10.30;8.52;;;;;;;18.09;87.29;100827.88;7382742;19;20368;-76
2023/09/11 00:32:05;;;;;;;10.65;9.50;;;;;;;18.08;87.69;100815.47;7393304;19;20359;-76
2023/09/11 00:34:32;;;;;;;10.05;9.05;;;;;;;18.06;87.89;100819.44;7391966;19;20411;-76
2023/09/11 00:36:59;;;;;;;11.75;10.55;;;;;;;18.05;87.90;100820.50;7390687;19;20424;-76
2023/09/11 00:39:26;;;;;;;11.30;10.15;;;;;;;18.03;88.29;100819.88;7393502;19;20372;-76
2023/09/11 00:41:52;;;;;;;11.80;10.70;;;;;;;18.01;87.95;100819.28;7392208;19;20411;-76
2023/09/11 00:44:20;;;;;;;11.38;10.25;;;;;;;17.99;88.57;100814.13;7390808;19;20373;-76
2023/09/11 00:46:47;;;;;;;11.73;10.52;;;;;;;17.98;88.53;100825.06;7396696;19;20445;-76
2023/09/11 00:49:15;;;;;;;10.68;9.57;;;;;;;17.93;88.17;100821.19;7392743;19;20345;-76
2023/09/11 00:51:42;;;;;;;10.63;9.70;;;;;;;17.89;88.41;100814.66;7390065;19;20382;-76
2023/09/11 00:54:09;;;;;;;11.20;10.07;;;;;;;17.87;88.68;100821.25;7390462;19;20352;-76
2023/09/11 00:56:36;;;;;;;10.93;9.82;;;;;;;17.83;89.38;100812.84;7389857;19;20371;-76
2023/09/11 00:59:03;;;;;;;9.65;8.73;;;;;;;17.81;88.63;100804.16;7390861;19;20385;-76
2023/09/11 01:01:31;;;;;;;10.88;9.88;;;;;;;17.77;88.54;100802.97;7390396;19;20702;-75
2023/09/11 01:03:59;;;;;;;12.18;10.88;;;;;;;17.75;88.97;100801.53;7392943;19;20364;-75
2023/09/11 01:06:26;;;;;;;12.00;10.80;;;;;;;17.71;89.37;100798.47;7390788;19;20368;-75
2023/09/11 01:08:55;;;;;;;11.48;10.38;;;;;;;17.69;89.50;100789.81;7389517;19;20379;-75
2023/09/11 01:11:22;;;;;;;11.35;10.25;;;;;;;17.67;89.57;100792.72;7387591;19;20368;-75
2023/09/11 01:13:49;;;;;;;12.57;11.38;;;;;;;17.64;89.84;100785.13;7386317;19;20380;-76
2023/09/11 01:16:35;;;;;;;13.38;12.07;;;;;;;17.64;90.27;100784.31;7386106;19;20426;-76
2023/09/11 01:19:11;;;;;;;13.55;11.93;;;;;;;17.61;90.87;100777.47;7389029;19;20681;-76
2023/09/11 01:21:45;;;;;;;12.63;11.52;;;;;;;17.58;91.32;100777.13;7390531;19;20818;-76
2023/09/11 01:24:38;;;;;;;12.93;11.55;;;;;;;17.55;91.53;100772.19;7388303;19;20450;-76
2023/09/11 01:27:07;;;;;;;12.38;11.20;;;;;;;17.50;91.74;100770.97;7386924;19;20760;-76
2023/09/11 01:29:41;;;;;;;12.00;10.90;;;;;;;17.47;92.01;100774.09;7386603;19;20910;-76
2023/09/11 01:32:10;;;;;;;12.70;11.40;;;;;;;17.42;92.13;100768.56;7384944;19;20440;-76
2023/09/11 01:34:37;;;;;;;13.50;12.20;;;;;;;17.38;92.16;100770.03;7386063;19;20672;-76
2023/09/11 01:37:04;;;;;;;14.37;12.67;;;;;;;17.36;92.28;100773.97;7387544;19;20357;-76
2023/09/11 01:39:31;;;;;;;13.60;12.30;;;;;;;17.33;92.60;100770.69;7383151;19;20437;-76
2023/09/11 01:42:04;;;;;;;14.00;12.68;;;;;;;17.30;92.46;100770.31;7387396;19;20348;-76
2023/09/11 01:44:37;;;;;;;13.90;12.60;;;;;;;17.28;93.01;100772.41;7384743;19;20385;-76
2023/09/11 01:47:06;;;;;;;13.85;12.55;;;;;;;17.27;92.86;100771.56;7385959;19;20859;-76
2023/09/11 01:49:36;;;;;;;13.63;12.35;;;;;;;17.26;92.76;100774.47;7388435;19;20814;-76
2023/09/11 01:52:04;;;;;;;13.07;11.88;;;;;;;17.25;93.25;100778.19;7388273;19;20373;-76
2023/09/11 01:54:33;;;;;;;13.43;12.15;;;;;;;17.23;93.27;100774.91;7388557;19;20428;-76
2023/09/11 01:57:00;;;;;;;13.00;11.82;;;;;;;17.21;92.89;100772.41;7386438;19;20377;-76
2023/09/11 01:59:27;;;;;;;15.18;12.13;;;;;;;17.20;93.09;100775.34;7386188;19;20368;-76
2023/09/11 02:01:54;;;;;;;12.85;11.65;;;;;;;17.19;93.39;100782.56;7388732;19;20352;-77
2023/09/11 02:04:22;;;;;;;13.75;12.35;;;;;;;17.18;93.39;100778.22;7386464;19;20432;-76
2023/09/11 02:06:48;;;;;;;13.48;12.13;;;;;;;17.17;93.52;100781.13;7388907;19;20337;-76
2023/09/11 02:09:16;;;;;;;13.52;12.13;;;;;;;17.17;93.56;100773.06;7386741;19;20879;-76
2023/09/11 02:11:43;;;;;;;12.57;11.38;;;;;;;17.14;93.36;100771.66;7208618;19;3467435;-76
2023/09/11 02:14:09;;;;;;;13.57;12.05;;;;;;;17.14;93.48;100768.16;7388732;19;20356;-76
2023/09/11 02:16:36;;;;;;;13.30;11.77;;;;;;;17.12;93.57;100763.00;7389712;19;20376;-76
2023/09/11 02:19:03;;;;;;;13.60;12.32;;;;;;;17.08;93.73;100767.97;7388350;19;20711;-76
2023/09/11 02:21:30;;;;;;;13.77;12.32;;;;;;;17.07;93.75;100769.03;7388854;19;20423;-75
2023/09/11 02:23:57;;;;;;;13.32;11.98;;;;;;;17.05;93.98;100768.41;7387793;19;20525;-76
2023/09/11 02:26:26;;;;;;;13.80;12.40;;;;;;;17.04;94.33;100766.78;7390386;19;20855;-75
2023/09/11 02:28:55;;;;;;;14.00;12.55;;;;;;;17.01;94.30;100767.22;7387884;19;20380;-75
2023/09/11 02:31:22;;;;;;;14.02;12.82;;;;;;;16.99;94.33;100769.28;7389286;19;20389;-76
2023/09/11 02:33:48;;;;;;;14.50;13.10;;;;;;;16.98;94.49;100762.28;7388215;19;20344;-76
2023/09/11 02:36:15;;;;;;;14.13;12.82;;;;;;;16.98;94.82;100762.28;7389703;19;20360;-76
2023/09/11 02:38:42;;;;;;;13.98;12.30;;;;;;;16.98;94.58;100762.28;7387245;19;20365;-76
2023/09/11 02:41:10;;;;;;;14.00;12.70;;;;;;;16.96;94.79;100755.47;7387104;19;21945;-76
2023/09/11 02:43:37;;;;;;;13.77;12.48;;;;;;;16.97;94.76;100759.81;7388728;19;20878;-75
2023/09/11 02:46:04;;;;;;;14.07;12.70;;;;;;;16.94;94.65;100750.34;7387975;19;20721;-75
2023/09/11 02:48:31;;;;;;;14.17;12.77;;;;;;;16.94;94.74;100755.72;7387128;19;20944;-75
2023/09/11 02:50:59;;;;;;;15.40;13.63;;;;;;;16.92;94.87;100749.75;7390225;19;20440;-75
2023/09/11 02:53:26;;;;;;;13.98;12.50;;;;;;;16.90;94.85;100751.81;7383596;19;20398;-75
2023/09/11 02:55:53;;;;;;;14.45;13.05;;;;;;;16.88;94.73;100751.22;7387407;19;20348;-75
2023/09/11 02:58:20;;;;;;;14.48;13.13;;;;;;;16.86;95.00;100745.25;7389109;19;20376;-76
2023/09/11 03:00:46;;;;;;;14.90;13.23;;;;;;;16.83;94.86;100745.66;7386920;19;20699;-75
2023/09/11 03:03:13;;;;;;;15.13;13.73;;;;;;;16.79;95.13;100747.94;7386836;19;20398;-76
2023/09/11 03:05:40;;;;;;;16.17;14.68;;;;;;;16.76;95.43;100743.00;7387670;19;20531;-76
2023/09/11 03:08:07;;;;;;;16.45;14.90;;;;;;;16.73;95.96;100734.59;7386677;19;20352;-76
2023/09/11 03:10:34;;;;;;;16.25;14.75;;;;;;;16.69;95.95;100726.16;7388022;19;20352;-76
2023/09/11 03:13:03;;;;;;;15.77;14.17;;;;;;;16.65;95.92;100736.47;7384671;19;20772;-76
2023/09/11 03:15:31;;;;;;;15.80;14.20;;;;;;;16.62;96.27;100734.22;7386667;19;20365;-75
2023/09/11 03:17:58;;;;;;;15.20;13.65;;;;;;;16.57;95.96;100725.16;7387075;19;20356;-75
2023/09/11 03:20:25;;;;;;;15.40;13.87;;;;;;;16.54;96.03;100729.09;7387297;19;20395;-75
2023/09/11 03:22:53;;;;;;;14.95;13.35;;;;;;;16.49;96.08;100728.91;7385250;19;20360;-75
2023/09/11 03:25:21;;;;;;;14.52;13.23;;;;;;;16.45;96.06;100733.06;7384545;19;20376;-75
2023/09/11 03:27:48;;;;;;;15.27;13.80;;;;;;;16.40;96.15;100727.50;7388001;19;20371;-75
2023/09/11 03:30:16;;;;;;;14.90;13.68;;;;;;;16.36;96.28;100720.94;7387656;19;20426;-76
2023/09/11 03:32:43;;;;;;;15.27;13.80;;;;;;;16.34;96.65;100725.69;7386198;19;20399;-76
2023/09/11 03:35:11;;;;;;;16.33;14.80;;;;;;;16.30;96.85;100723.44;7386468;19;20364;-76
2023/09/11 03:37:38;;;;;;;16.73;14.67;;;;;;;16.28;97.29;100722.03;7384219;19;20569;-76
2023/09/11 03:40:07;;;;;;;16.38;14.77;;;;;;;16.26;97.30;100718.72;7385453;19;20427;-76
2023/09/11 03:42:36;;;;;;;17.20;15.27;;;;;;;16.24;97.67;100718.13;7382610;19;20384;-76
2023/09/11 03:45:03;;;;;;;17.02;15.43;;;;;;;16.23;97.80;100719.94;7386182;19;20444;-76
2023/09/11 03:47:30;;;;;;;16.48;14.98;;;;;;;16.22;97.77;100718.31;7386850;19;20345;-76
2023/09/11 03:49:57;;;;;;;16.45;14.95;;;;;;;16.21;98.13;100714.00;7391011;19;20364;-76
2023/09/11 03:52:24;;;;;;;15.95;14.43;;;;;;;16.21;98.00;100716.66;7386612;19;20734;-75
2023/09/11 03:54:51;;;;;;;16.33;14.83;;;;;;;16.20;98.12;100716.91;7382998;19;20372;-75
2023/09/11 03:57:18;;;;;;;16.10;14.50;;;;;;;16.20;98.20;100711.53;7382424;19;20419;-75
2023/09/11 03:59:48;;;;;;;16.25;14.65;;;;;;;16.18;98.23;100698.38;7385067;19;20798;-75
2023/09/11 04:02:15;;;;;;;16.23;14.60;;;;;;;16.17;98.17;100696.75;7386831;19;20344;-76
2023/09/11 04:04:41;;;;;;;16.15;14.65;;;;;;;16.16;98.08;100705.78;7384478;19;20407;-75
2023/09/11 04:07:08;;;;;;;15.70;14.07;;;;;;;16.13;98.29;100700.88;7386450;19;20376;-75
2023/09/11 04:09:35;;;;;;;16.23;14.57;;;;;;;16.11;98.17;100697.59;7382125;19;20359;-75
2023/09/11 04:12:03;;;;;;;16.17;14.73;;;;;;;16.11;98.12;100702.94;7380336;19;20378;-75
2023/09/11 04:14:30;;;;;;;15.67;14.10;;;;;;;16.08;98.07;100698.81;7384869;19;20361;-75
2023/09/11 04:16:57;;;;;;;15.88;14.38;;;;;;;16.04;98.12;100694.91;7382623;19;20736;-75
2023/09/11 04:19:24;;;;;;;15.38;13.88;;;;;;;16.02;98.19;100699.66;7383164;19;20392;-76
2023/09/11 04:21:51;;;;;;;16.30;14.77;;;;;;;16.01;98.21;100702.53;7388566;19;20372;-75
2023/09/11 04:24:18;;;;;;;16.13;14.50;;;;;;;15.99;98.35;100701.94;7385468;19;20403;-76
2023/09/11 04:26:45;;;;;;;16.90;15.20;;;;;;;15.98;98.21;100710.97;7388355;19;20361;-75
2023/09/11 04:29:12;;;;;;;16.55;15.00;;;;;;;15.96;98.27;100705.00;7383604;19;20383;-76
2023/09/11 04:31:40;;;;;;;17.85;15.15;;;;;;;15.95;98.38;100703.38;7381695;19;20408;-75
2023/09/11 04:34:07;;;;;;;18.10;15.68;;;;;;;15.94;98.19;100699.91;7389863;19;20386;-75
2023/09/11 04:36:35;;;;;;;15.35;13.82;;;;;;;15.94;98.65;100699.06;7380283;19;20360;-78
2023/09/11 04:39:04;;;;;;;16.30;14.65;;;;;;;15.95;98.81;100698.03;7390926;19;20435;-78
2023/09/11 04:41:31;;;;;;;16.33;14.65;;;;;;;15.97;98.79;100704.81;7387571;19;21084;-79
2023/09/11 04:43:58;;;;;;;17.98;14.95;;;;;;;16.00;98.82;100696.38;7391452;19;20372;-78
2023/09/11 04:46:25;;;;;;;18.88;15.45;;;;;;;16.02;98.42;100701.50;7389586;19;20348;-78
2023/09/11 04:48:52;;;;;;;17.98;14.85;;;;;;;16.03;98.32;100695.94;7389991;19;20368;-78
2023/09/11 04:51:19;;;;;;;19.30;15.50;;;;;;;16.06;98.30;100694.69;7382933;19;20440;-78
2023/09/11 04:53:46;;;;;;;17.20;15.35;;;;;;;16.08;98.32;100692.63;7384550;19;20415;-78
2023/09/11 04:56:13;;;;;;;18.55;15.35;;;;;;;16.10;98.05;100690.56;7387601;19;20369;-78
2023/09/11 04:58:40;;;;;;;17.25;15.45;;;;;;;16.12;97.74;100687.69;7387575;19;20408;-78
2023/09/11 05:01:08;;;;;;;16.98;15.00;;;;;;;16.13;98.11;100679.47;7387321;19;20375;-78
2023/09/11 05:03:37;;;;;;;58.33;20.92;;;;;;;16.15;97.83;100692.59;7385910;19;20367;-78
2023/09/11 05:06:04;;;;;;;382.02;62.47;;;;;;;16.18;97.74;100693.00;7386304;19;20364;-78
2023/09/11 05:08:32;;;;;;;184.25;37.83;;;;;;;16.20;97.61;100695.50;7384633;19;20448;-78
2023/09/11 05:11:19;;;;;;;103.80;26.23;;;;;;;16.24;97.78;100696.72;7379862;19;20348;-78
2023/09/11 05:13:46;;;;;;;49.72;20.15;;;;;;;16.28;97.56;100696.06;7389512;19;20372;-78
2023/09/11 05:16:13;;;;;;;25.83;17.50;;;;;;;16.34;97.51;100696.25;7388107;19;20352;-77
2023/09/11 05:18:40;;;;;;;27.30;17.45;;;;;;;16.38;97.38;100695.59;7396459;19;20369;-78
2023/09/11 05:21:07;;;;;;;19.52;16.15;;;;;;;16.44;97.26;100700.09;7394464;19;20865;-78
2023/09/11 05:23:35;;;;;;;19.63;15.83;;;;;;;16.49;97.02;100700.28;7393657;19;20924;-78
2023/09/11 05:26:03;;;;;;;19.95;17.88;;;;;;;16.56;97.19;100694.09;7393629;19;20340;-78
2023/09/11 05:28:30;;;;;;;17.83;15.20;;;;;;;16.60;97.09;100696.13;7392720;19;20344;-78
2023/09/11 05:30:56;;;;;;;22.80;20.40;;;;;;;16.66;96.90;100699.78;7392378;19;20449;-78
2023/09/11 05:33:23;;;;;;;20.52;16.42;;;;;;;16.71;96.91;100692.75;7388617;19;20370;-78
2023/09/11 05:35:50;;;;;;;19.70;15.77;;;;;;;16.79;97.40;100696.19;7391395;19;20364;-77
2023/09/11 05:38:18;;;;;;;17.23;15.27;;;;;;;16.88;97.29;100694.94;7392160;19;20363;-77
2023/09/11 05:40:44;;;;;;;16.73;14.95;;;;;;;16.98;97.15;100692.63;7393735;19;20905;-77
2023/09/11 05:43:11;;;;;;;18.52;14.18;;;;;;;17.09;97.04;100693.78;7392475;19;20353;-77
2023/09/11 05:45:38;;;;;;;24.48;13.07;;;;;;;17.25;96.64;100687.84;7392196;19;20364;-77
2023/09/11 05:48:05;;;;;;;22.70;11.90;;;;;;;17.39;95.79;100693.13;7389237;19;20482;-77
2023/09/11 05:50:32;;;;;;;18.30;12.73;;;;;;;17.50;94.92;100690.50;7392717;19;20970;-77
2023/09/11 05:52:59;;;;;;;15.90;11.25;;;;;;;17.63;94.30;100688.75;7384601;19;20758;-77
2023/09/11 05:55:26;;;;;;;17.20;11.02;;;;;;;17.79;93.90;100685.50;7394084;19;20899;-77
2023/09/11 05:57:53;;;;;;;13.10;10.23;;;;;;;17.93;93.16;100688.88;7381991;19;20364;-77
2023/09/11 06:00:20;;;;;;;14.38;9.88;;;;;;;18.08;92.85;100691.19;7388169;19;20372;-77
2023/09/11 06:02:47;;;;;;;13.77;10.20;;;;;;;18.24;92.25;100685.19;7387066;19;20432;-77
2023/09/11 06:05:15;;;;;;;12.17;10.20;;;;;;;18.39;91.79;100686.69;7384996;19;20372;-77
2023/09/11 06:07:43;;;;;;;12.30;10.05;;;;;;;18.55;91.33;100688.72;7387261;19;21296;-77
2023/09/11 06:10:12;;;;;;;15.33;10.60;;;;;;;18.67;90.35;100689.56;7386759;19;20345;-77
2023/09/11 06:12:39;;;;;;;13.77;10.90;;;;;;;18.80;89.71;100693.97;7389145;19;20364;-77
2023/09/11 06:15:06;;;;;;;15.65;10.98;;;;;;;18.94;89.53;100689.22;7391627;19;20878;-77
2023/09/11 06:17:33;;;;;;;12.00;10.68;;;;;;;19.11;89.30;100687.50;7389912;19;20358;-77
2023/09/11 06:20:13;;;;;;;14.90;10.90;;;;;;;19.26;88.49;100687.06;7391156;19;20348;-77
2023/09/11 06:22:43;;;;;;;14.82;11.30;;;;;;;19.35;88.27;100696.41;7389180;19;20344;-77
2023/09/11 06:25:10;;;;;;;15.05;10.88;;;;;;;19.41;87.94;100689.28;7386964;19;20369;-77
2023/09/11 06:27:37;;;;;;;12.90;11.60;;;;;;;19.47;87.73;100699.13;7389844;19;20390;-77
2023/09/11 06:30:05;;;;;;;12.77;11.02;;;;;;;19.52;87.56;100691.16;7391124;19;20872;-77
2023/09/11 06:32:33;;;;;;;14.80;11.13;;;;;;;19.54;87.17;100691.72;7393169;19;20360;-77
2023/09/11 06:35:01;;;;;;;15.60;11.43;;;;;;;19.60;87.02;100691.88;7389731;19;20749;-77
2023/09/11 06:37:28;;;;;;;17.30;11.50;;;;;;;19.64;87.22;100696.53;7389085;19;20332;-77
2023/09/11 06:39:55;;;;;;;14.03;11.37;;;;;;;19.70;86.88;100687.56;7392972;19;20355;-78
2023/09/11 06:42:24;;;;;;;15.33;11.67;;;;;;;19.78;86.83;100689.06;7389452;19;20877;-78
2023/09/11 06:44:52;;;;;;;18.17;12.00;;;;;;;19.86;86.81;100686.00;7386380;19;21075;-78
2023/09/11 06:47:19;;;;;;;14.02;11.48;;;;;;;19.97;86.58;100681.66;7389571;19;20440;-76
2023/09/11 06:49:46;;;;;;;14.85;10.80;;;;;;;20.06;86.30;100685.63;7389660;19;20360;-76
2023/09/11 06:52:13;;;;;;;15.07;10.55;;;;;;;20.15;85.92;100678.78;7394229;19;20361;-76
2023/09/11 06:54:39;;;;;;;15.10;10.73;;;;;;;20.23;85.56;100685.69;7394524;19;20364;-77
2023/09/11 06:57:06;;;;;;;15.77;10.90;;;;;;;20.33;85.52;100680.47;7391076;19;20432;-77
2023/09/11 06:59:34;;;;;;;17.30;10.50;;;;;;;20.44;84.43;100686.06;7392526;19;20368;-77
2023/09/11 07:02:01;;;;;;;13.85;10.55;;;;;;;20.54;84.46;100683.56;7395344;19;20364;-77
2023/09/11 07:04:27;;;;;;;17.05;10.88;;;;;;;20.65;84.24;100682.72;7394061;19;20418;-77
2023/09/11 07:06:56;;;;;;;14.30;11.10;;;;;;;20.80;84.17;100684.06;7396265;19;20361;-77
2023/09/11 07:09:23;;;;;;;14.63;10.27;;;;;;;20.93;83.42;100679.19;7392281;19;20364;-77
2023/09/11 07:11:50;;;;;;;14.65;11.30;;;;;;;21.05;83.06;100676.41;7387410;19;20361;-77
2023/09/11 07:14:21;;;;;;;12.57;9.75;;;;;;;21.16;82.73;100683.56;7386445;19;20390;-77
2023/09/11 07:16:49;;;;;;;14.95;10.50;;;;;;;21.28;82.67;100674.59;7387948;19;20403;-77
2023/09/11 07:19:16;;;;;;;12.00;9.40;;;;;;;21.46;82.16;100671.66;7390352;19;20371;-77
2023/09/11 07:21:44;;;;;;;13.30;9.85;;;;;;;21.58;82.05;100674.25;7392420;19;20725;-77
2023/09/11 07:24:11;;;;;;;12.93;9.63;;;;;;;21.75;81.34;100668.81;7392171;19;20343;-76
2023/09/11 07:26:39;;;;;;;12.23;9.32;;;;;;;21.93;81.66;100671.22;7390993;19;20467;-77
2023/09/11 07:29:06;;;;;;;13.43;9.50;;;;;;;22.12;80.66;100668.19;7391245;19;20378;-77
2023/09/11 07:31:33;;;;;;;12.97;9.23;;;;;;;22.25;80.08;100667.84;7388880;19;20344;-77
2023/09/11 07:34:00;;;;;;;11.63;8.73;;;;;;;22.41;79.92;100668.00;7383366;19;20352;-77
2023/09/11 07:36:29;;;;;;;14.53;9.50;;;;;;;22.57;78.91;100661.69;7389578;19;20860;-76
2023/09/11 07:38:55;;;;;;;11.07;8.50;;;;;;;22.72;79.12;100669.94;7390281;19;20416;-77
2023/09/11 07:41:23;;;;;;;13.23;8.43;;;;;;;22.87;77.50;100665.75;7386830;19;20456;-77
2023/09/11 07:43:50;;;;;;;14.03;8.97;;;;;;;22.97;77.14;100653.13;7389501;19;20372;-77
2023/09/11 07:46:22;;;;;;;16.27;8.25;;;;;;;23.11;77.30;100658.91;7391859;19;20345;-77
2023/09/11 07:48:49;;;;;;;11.18;8.32;;;;;;;23.29;76.26;100663.13;7386606;19;20412;-77
2023/09/11 07:51:17;;;;;;;14.45;8.30;;;;;;;23.43;75.83;100655.34;7392140;19;20989;-78
2023/09/11 07:53:44;;;;;;;11.65;8.45;;;;;;;23.56;75.79;100656.75;7385939;19;20377;-77
2023/09/11 07:56:11;;;;;;;14.67;8.17;;;;;;;23.71;75.83;100664.97;7387621;19;20348;-77
2023/09/11 07:58:39;;;;;;;12.10;7.60;;;;;;;23.89;75.31;100660.22;7390296;19;20373;-77
2023/09/11 08:01:06;;;;;;;11.70;7.10;;;;;;;24.08;74.62;100658.66;7388912;19;20382;-77
2023/09/11 08:03:34;;;;;;;11.43;6.65;;;;;;;24.19;72.14;100654.91;7388942;19;20803;-77
2023/09/11 08:06:04;;;;;;;8.90;7.10;;;;;;;24.34;73.09;100654.13;7386197;19;20375;-77
2023/09/11 08:08:31;;;;;;;11.05;6.90;;;;;;;24.51;72.66;100655.81;7383548;19;20381;-77
2023/09/11 08:10:58;;;;;;;11.68;7.40;;;;;;;24.67;71.51;100654.72;7387366;19;20378;-77
2023/09/11 08:13:25;;;;;;;11.75;6.55;;;;;;;24.83;71.92;100650.94;7382880;19;20369;-77
2023/09/11 08:15:53;;;;;;;12.00;6.35;;;;;;;25.00;69.99;100645.25;7388470;19;20390;-77
2023/09/11 08:18:21;;;;;;;10.80;5.80;;;;;;;25.10;67.67;100649.03;7388592;19;20367;-77
2023/09/11 08:20:49;;;;;;;15.50;6.53;;;;;;;25.17;67.39;100650.38;7386238;19;20714;-77
2023/09/11 08:23:18;;;;;;;11.23;5.53;;;;;;;25.31;67.26;100645.25;7388543;19;20959;-77
2023/09/11 08:25:45;;;;;;;11.70;5.35;;;;;;;25.39;65.22;100652.00;7385652;19;20444;-77
2023/09/11 08:28:12;;;;;;;15.25;5.43;;;;;;;25.46;64.92;100652.53;7380406;19;20369;-78
2023/09/11 08:30:39;;;;;;;12.18;5.53;;;;;;;25.54;66.06;100646.53;7382708;19;20373;-78
2023/09/11 08:33:07;;;;;;;12.63;5.68;;;;;;;25.56;64.24;100641.63;7385414;19;20380;-77
2023/09/11 08:35:34;;;;;;;13.77;5.00;;;;;;;25.68;63.99;100648.69;7387937;19;20365;-78
2023/09/11 08:38:01;;;;;;;11.40;4.97;;;;;;;25.73;63.03;100645.94;7383652;19;20854;-78
2023/09/11 08:40:30;;;;;;;14.30;5.23;;;;;;;25.84;62.09;100639.34;7386315;19;20366;-78
2023/09/11 08:42:58;;;;;;;12.00;4.63;;;;;;;25.99;60.95;100654.81;7389332;19;20910;-77
2023/09/11 08:45:26;;;;;;;16.77;5.65;;;;;;;26.04;60.17;100639.28;7387289;19;20369;-78
2023/09/11 08:47:58;;;;;;;15.55;5.00;;;;;;;26.23;60.97;100639.47;7384380;19;20372;-78
2023/09/11 08:50:32;;;;;;;12.07;4.85;;;;;;;26.34;60.16;100645.66;7386851;19;20337;-78
2023/09/11 08:52:59;;;;;;;18.02;5.22;;;;;;;26.47;59.33;100636.03;7393722;19;20377;-78
2023/09/11 08:55:29;;;;;;;17.38;5.38;;;;;;;26.54;58.80;100633.00;7393526;19;20710;-78
2023/09/11 08:58:02;;;;;;;11.65;4.82;;;;;;;26.62;58.39;100635.16;7395237;19;20364;-78
2023/09/11 09:00:31;;;;;;;14.90;5.33;;;;;;;26.74;59.14;100637.53;7397116;19;20360;-78
2023/09/11 09:03:00;;;;;;;11.30;4.53;;;;;;;26.82;57.70;100635.00;7393316;19;20372;-78
2023/09/11 09:05:30;;;;;;;17.15;5.43;;;;;;;26.98;57.83;100621.25;7395243;19;20368;-78
2023/09/11 09:07:58;;;;;;;15.35;4.65;;;;;;;27.11;58.33;100628.72;7392608;19;20447;-78
2023/09/11 09:10:25;;;;;;;13.18;5.47;;;;;;;27.25;57.12;100615.28;7391311;19;20348;-78
2023/09/11 09:12:53;;;;;;;10.93;4.68;;;;;;;27.36;57.45;100622.25;7395807;19;20368;-78
2023/09/11 09:15:21;;;;;;;13.38;4.70;;;;;;;27.48;56.40;100627.31;7394534;19;20408;-78
2023/09/11 09:17:49;;;;;;;15.73;5.38;;;;;;;27.53;55.12;100627.22;7392875;19;20368;-78
2023/09/11 09:20:17;;;;;;;12.02;5.10;;;;;;;27.63;55.63;100624.38;7395205;19;20348;-79
2023/09/11 09:22:56;;;;;;;13.77;4.95;;;;;;;27.73;54.71;100619.91;7397817;19;20364;-78
2023/09/11 09:25:24;;;;;;;15.20;4.90;;;;;;;27.79;54.44;100621.47;7387462;19;20401;-78
2023/09/11 09:27:51;;;;;;;13.27;4.90;;;;;;;27.88;54.65;100614.28;7396165;19;20381;-78
2023/09/11 09:30:24;;;;;;;11.90;5.10;;;;;;;28.00;54.36;100619.31;7393470;19;20361;-78
2023/09/11 09:32:52;;;;;;;11.60;4.38;;;;;;;28.08;54.49;100610.47;7395971;19;20365;-78
2023/09/11 09:35:22;;;;;;;16.98;4.70;;;;;;;28.16;53.93;100617.16;7393590;19;20347;-78
2023/09/11 09:37:53;;;;;;;12.48;4.50;;;;;;;28.22;54.49;100614.09;7390219;19;20368;-78
2023/09/11 09:40:37;;;;;;;17.03;5.17;;;;;;;28.33;53.59;100606.56;7392088;19;20356;-79
2023/09/11 09:43:15;;;;;;;16.20;4.85;;;;;;;28.45;52.71;100606.91;7390340;19;20360;-78
2023/09/11 09:45:42;;;;;;;14.90;4.82;;;;;;;28.53;52.90;100605.44;7393130;19;20350;-78
2023/09/11 09:48:17;;;;;;;23.95;5.97;;;;;;;28.55;51.98;100618.81;7393158;19;20353;-78
2023/09/11 09:50:58;;;;;;;14.02;4.97;;;;;;;28.61;52.11;100603.97;7395665;19;20888;-78
2023/09/11 09:53:34;;;;;;;15.63;5.30;;;;;;;28.70;52.78;100607.63;7389607;19;20390;-78
2023/09/11 09:56:03;;;;;;;12.30;4.43;;;;;;;28.82;52.51;100609.91;7392064;19;20364;-78
2023/09/11 09:58:34;;;;;;;12.70;4.55;;;;;;;28.93;52.64;100599.59;7393800;19;20357;-79
2023/09/11 10:01:09;;;;;;;16.00;5.13;;;;;;;28.98;51.34;100596.78;7392062;19;20368;-79
2023/09/11 10:03:47;;;;;;;12.98;4.85;;;;;;;29.05;51.68;100602.63;7391902;19;20355;-78
2023/09/11 10:06:21;;;;;;;15.20;4.35;;;;;;;29.11;51.44;100587.00;7394824;19;20844;-79
2023/09/11 10:09:05;;;;;;;13.55;4.95;;;;;;;29.24;51.63;100592.50;7394674;19;20357;-79
2023/09/11 10:11:33;;;;;;;13.02;4.55;;;;;;;29.34;51.76;100591.47;7388972;19;20374;-79
2023/09/11 10:14:03;;;;;;;14.05;4.45;;;;;;;29.53;52.32;100580.41;7395225;19;20363;-80
2023/09/11 10:16:31;;;;;;;10.35;4.63;;;;;;;29.66;49.99;100576.84;7391368;19;20364;-80
2023/09/11 10:18:59;;;;;;;13.75;5.07;;;;;;;29.71;49.83;100576.00;7389080;19;20856;-79
2023/09/11 10:21:28;;;;;;;15.48;4.82;;;;;;;29.82;49.65;100568.38;7393089;19;20369;-79
2023/09/11 10:23:55;;;;;;;17.98;5.47;;;;;;;29.94;49.10;100574.09;7394576;19;20385;-79
2023/09/11 10:26:40;;;;;;;17.20;5.47;;;;;;;30.08;49.76;100568.59;7393780;19;20367;-79
2023/09/11 10:29:11;;;;;;;16.42;4.68;;;;;;;30.18;48.89;100576.56;7390650;19;20758;-79
2023/09/11 10:31:53;;;;;;;13.87;4.80;;;;;;;30.18;49.35;100573.03;7393705;19;20365;-79
2023/09/11 10:34:21;;;;;;;15.02;4.90;;;;;;;30.18;48.99;100564.81;7386734;19;20376;-79
2023/09/11 10:36:55;;;;;;;15.80;5.25;;;;;;;30.24;49.83;100560.81;7391622;19;20443;-80
2023/09/11 10:39:22;;;;;;;20.85;5.30;;;;;;;30.29;48.67;100560.72;7390946;19;20380;-79
2023/09/11 10:41:49;;;;;;;18.40;4.95;;;;;;;30.29;48.56;100558.00;7391524;19;20385;-79
2023/09/11 10:44:16;;;;;;;18.00;5.20;;;;;;;30.33;47.98;100556.25;7392930;19;20377;-80
2023/09/11 10:46:48;;;;;;;13.10;4.95;;;;;;;30.38;49.08;100558.06;7391804;19;20360;-79
2023/09/11 10:49:20;;;;;;;15.10;4.70;;;;;;;30.44;48.30;100554.88;7392381;19;20372;-79
2023/09/11 10:51:49;;;;;;;16.75;4.80;;;;;;;30.48;48.09;100549.59;7393931;19;20365;-79
2023/09/11 10:54:20;;;;;;;12.90;4.80;;;;;;;30.52;48.06;100552.50;7393534;19;20373;-80
2023/09/11 10:56:51;;;;;;;13.82;4.43;;;;;;;30.55;47.09;100551.88;7391811;19;20383;-80
2023/09/11 10:59:22;;;;;;;17.38;5.05;;;;;;;30.61;46.94;100547.91;7393027;19;20440;-80
2023/09/11 11:01:50;;;;;;;19.50;4.70;;;;;;;30.56;47.38;100548.84;7391253;19;20392;-79
2023/09/11 11:04:17;;;;;;;15.57;5.10;;;;;;;30.68;47.47;100546.31;7393303;19;20371;-80
2023/09/11 11:06:46;;;;;;;17.25;4.85;;;;;;;30.70;47.71;100540.53;7394488;19;20420;-80
2023/09/11 11:09:30;;;;;;;14.10;4.70;;;;;;;30.72;46.58;100541.03;7392616;19;20389;-79
2023/09/11 11:12:04;;;;;;;14.30;4.32;;;;;;;30.75;46.78;100556.84;7390020;19;20371;-80
2023/09/11 11:14:33;;;;;;;16.33;4.43;;;;;;;30.88;46.07;100552.41;7387428;19;20356;-79
2023/09/11 11:17:06;;;;;;;14.75;4.40;;;;;;;30.93;45.99;100535.03;7391447;19;20365;-79